sensor_id;sensor_type;location;lat;lon;timestamp;pressure;altitude;pressure_sealevel;temperature;humidity
11444;BME280;5778;47.856;12.154;2023-02-17T00:00:18;97216.09;;;6.59;100.00
11444;BME280;5778;47.856;12.154;2023-02-17T00:02:55;97215.91;;;6.60;100.00
11444;BME280;5778;47.856;12.154;2023-02-17T00:05:23;97220.78;;;6.57;100.00
11444;BME280;5778;47.856;12.154;2023-02-17T00:07:51;97222.22;;;6.66;100.00
11444;BME280;5778;47.856;12.154;2023-02-17T00:10:19;97212.22;;;6.61;100.00
11444;BME280;5778;47.856;12.154;2023-02-17T00:12:49;97205.94;;;6.56;100.00
11444;BME280;5778;47.856;12.154;2023-02-17T00:15:16;97209.81;;;6.60;100.00
11444;BME280;5778;47.856;12.154;2023-02-17T00:17:43;97210.63;;;6.54;100.00
11444;BME280;5778;47.856;12.154;2023-02-17T00:20:11;97213.25;;;6.60;100.00
11444;BME280;5778;47.856;12.154;2023-02-17T00:22:43;97212.84;;;6.63;100.00
11444;BME280;5778;47.856;12.154;2023-02-17T00:25:11;97206.94;;;6.68;100.00
11444;BME280;5778;47.856;12.154;2023-02-17T00:27:38;97205.53;;;6.65;100.00
11444;BME280;5778;47.856;12.154;2023-02-17T00:30:09;97210.63;;;6.60;100.00
11444;BME280;5778;47.856;12.154;2023-02-17T00:32:43;97211.22;;;6.69;100.00
11444;BME280;5778;47.856;12.154;2023-02-17T00:35:11;97206.16;;;6.61;100.00
11444;BME280;5778;47.856;12.154;2023-02-17T00:37:41;97219.13;;;6.69;100.00
11444;BME280;5778;47.856;12.154;2023-02-17T00:40:10;97199.22;;;6.66;100.00
11444;BME280;5778;47.856;12.154;2023-02-17T00:42:47;97199.25;;;6.60;100.00
11444;BME280;5778;47.856;12.154;2023-02-17T00:45:17;97194.34;;;6.57;100.00
11444;BME280;5778;47.856;12.154;2023-02-17T00:47:44;97205.94;;;6.56;100.00
11444;BME280;5778;47.856;12.154;2023-02-17T00:50:12;97199.25;;;6.60;100.00
11444;BME280;5778;47.856;12.154;2023-02-17T00:52:40;97191.91;;;6.55;100.00
11444;BME280;5778;47.856;12.154;2023-02-17T00:55:07;97202.28;;;6.63;100.00
11444;BME280;5778;47.856;12.154;2023-02-17T00:57:35;97201.88;;;6.47;100.00
11444;BME280;5778;47.856;12.154;2023-02-17T01:00:03;97200.88;;;6.48;100.00
11444;BME280;5778;47.856;12.154;2023-02-17T01:02:35;97199.25;;;6.53;100.00
11444;BME280;5778;47.856;12.154;2023-02-17T01:05:02;97203.09;;;6.51;100.00
11444;BME280;5778;47.856;12.154;2023-02-17T01:07:30;97194.34;;;6.50;100.00
11444;BME280;5778;47.856;12.154;2023-02-17T01:09:57;97199.66;;;6.57;100.00
11444;BME280;5778;47.856;12.154;2023-02-17T01:12:33;97198.81;;;6.63;100.00
11444;BME280;5778;47.856;12.154;2023-02-17T01:15:00;97194.56;;;6.68;100.00
11444;BME280;5778;47.856;12.154;2023-02-17T01:17:28;97198.81;;;6.76;100.00
11444;BME280;5778;47.856;12.154;2023-02-17T01:19:57;97185.78;;;6.81;100.00
11444;BME280;5778;47.856;12.154;2023-02-17T01:22:27;97176.00;;;6.88;100.00
11444;BME280;5778;47.856;12.154;2023-02-17T01:24:54;97184.13;;;6.93;100.00
11444;BME280;5778;47.856;12.154;2023-02-17T01:27:23;97180.47;;;6.94;100.00
11444;BME280;5778;47.856;12.154;2023-02-17T01:29:50;97179.22;;;6.96;100.00
11444;BME280;5778;47.856;12.154;2023-02-17T01:32:18;97165.19;;;6.96;100.00
11444;BME280;5778;47.856;12.154;2023-02-17T01:34:46;97164.16;;;6.97;100.00
11444;BME280;5778;47.856;12.154;2023-02-17T01:37:16;97168.63;;;7.03;100.00
11444;BME280;5778;47.856;12.154;2023-02-17T01:39:43;97169.22;;;7.05;100.00
11444;BME280;5778;47.856;12.154;2023-02-17T01:42:14;97166.59;;;7.05;100.00
11444;BME280;5778;47.856;12.154;2023-02-17T01:47:48;97163.69;;;7.13;100.00
11444;BME280;5778;47.856;12.154;2023-02-17T01:50:19;97162.88;;;7.19;100.00
11444;BME280;5778;47.856;12.154;2023-02-17T01:53:01;97153.09;;;7.19;100.00
11444;BME280;5778;47.856;12.154;2023-02-17T01:55:31;97156.13;;;7.23;100.00
11444;BME280;5778;47.856;12.154;2023-02-17T01:58:03;97164.06;;;7.23;100.00
11444;BME280;5778;47.856;12.154;2023-02-17T02:00:33;97147.78;;;7.26;100.00
11444;BME280;5778;47.856;12.154;2023-02-17T02:03:03;97143.34;;;7.20;100.00
11444;BME280;5778;47.856;12.154;2023-02-17T02:05:31;97143.75;;;7.17;100.00
11444;BME280;5778;47.856;12.154;2023-02-17T02:08:00;97130.09;;;7.20;100.00
11444;BME280;5778;47.856;12.154;2023-02-17T02:10:32;97143.75;;;7.17;100.00
11444;BME280;5778;47.856;12.154;2023-02-17T02:13:03;97151.09;;;7.15;100.00
11444;BME280;5778;47.856;12.154;2023-02-17T02:15:36;97157.59;;;7.12;100.00
11444;BME280;5778;47.856;12.154;2023-02-17T02:18:40;97151.50;;;7.12;100.00
11444;BME280;5778;47.856;12.154;2023-02-17T02:21:33;97152.31;;;7.12;100.00
11444;BME280;5778;47.856;12.154;2023-02-17T02:24:25;97143.75;;;7.17;100.00
11444;BME280;5778;47.856;12.154;2023-02-17T02:27:31;97153.94;;;7.13;100.00
11444;BME280;5778;47.856;12.154;2023-02-17T02:30:20;97155.94;;;7.18;100.00
11444;BME280;5778;47.856;12.154;2023-02-17T02:32:58;97142.72;;;7.18;100.00
11444;BME280;5778;47.856;12.154;2023-02-17T02:35:35;97163.09;;;7.11;100.00
11444;BME280;5778;47.856;12.154;2023-02-17T02:38:11;97169.34;;;7.23;100.00
11444;BME280;5778;47.856;12.154;2023-02-17T02:40:43;97141.88;;;7.24;100.00
11444;BME280;5778;47.856;12.154;2023-02-17T02:43:13;97170.19;;;7.17;100.00
11444;BME280;5778;47.856;12.154;2023-02-17T02:45:41;97174.22;;;7.26;100.00
11444;BME280;5778;47.856;12.154;2023-02-17T02:48:10;97149.00;;;7.30;100.00
11444;BME280;5778;47.856;12.154;2023-02-17T02:50:58;97165.44;;;7.38;100.00
11444;BME280;5778;47.856;12.154;2023-02-17T02:53:48;97159.50;;;7.43;100.00
11444;BME280;5778;47.856;12.154;2023-02-17T02:56:26;97153.38;;;7.42;100.00
11444;BME280;5778;47.856;12.154;2023-02-17T02:59:05;97153.75;;;7.46;100.00
11444;BME280;5778;47.856;12.154;2023-02-17T03:01:42;97158.84;;;7.47;100.00
11444;BME280;5778;47.856;12.154;2023-02-17T03:04:27;97157.44;;;7.45;100.00
11444;BME280;5778;47.856;12.154;2023-02-17T03:07:07;97146.84;;;7.45;100.00
11444;BME280;5778;47.856;12.154;2023-02-17T03:09:38;97155.81;;;7.44;100.00
11444;BME280;5778;47.856;12.154;2023-02-17T03:12:05;97156.19;;;7.47;100.00
11444;BME280;5778;47.856;12.154;2023-02-17T03:14:36;97149.72;;;7.43;100.00
11444;BME280;5778;47.856;12.154;2023-02-17T03:17:04;97148.91;;;7.43;100.00
11444;BME280;5778;47.856;12.154;2023-02-17T03:19:34;97145.22;;;7.44;100.00
11444;BME280;5778;47.856;12.154;2023-02-17T03:22:06;97148.47;;;7.46;100.00
11444;BME280;5778;47.856;12.154;2023-02-17T03:24:38;97146.84;;;7.45;100.00
11444;BME280;5778;47.856;12.154;2023-02-17T03:27:07;97152.38;;;7.43;100.00
11444;BME280;5778;47.856;12.154;2023-02-17T03:29:34;97149.31;;;7.40;100.00
11444;BME280;5778;47.856;12.154;2023-02-17T03:32:03;97148.91;;;7.43;100.00
11444;BME280;5778;47.856;12.154;2023-02-17T03:34:38;97149.28;;;7.46;100.00
11444;BME280;5778;47.856;12.154;2023-02-17T03:37:05;97150.91;;;7.47;100.00
11444;BME280;5778;47.856;12.154;2023-02-17T03:39:32;97143.03;;;7.41;100.00
11444;BME280;5778;47.856;12.154;2023-02-17T03:42:00;97147.88;;;7.44;100.00
11444;BME280;5778;47.856;12.154;2023-02-17T03:44:35;97147.28;;;7.42;100.00
11444;BME280;5778;47.856;12.154;2023-02-17T03:47:02;97153.00;;;7.39;100.00
11444;BME280;5778;47.856;12.154;2023-02-17T03:49:30;97154.59;;;7.40;100.00
11444;BME280;5778;47.856;12.154;2023-02-17T03:51:58;97143.66;;;7.36;100.00
11444;BME280;5778;47.856;12.154;2023-02-17T03:54:38;97147.34;;;7.29;100.00
11444;BME280;5778;47.856;12.154;2023-02-17T03:57:05;97157.91;;;7.29;100.00
11444;BME280;5778;47.856;12.154;2023-02-17T03:59:33;97156.31;;;7.28;100.00
11444;BME280;5778;47.856;12.154;2023-02-17T04:02:00;97152.22;;;7.32;100.00
11444;BME280;5778;47.856;12.154;2023-02-17T04:04:29;97145.72;;;7.28;100.00
11444;BME280;5778;47.856;12.154;2023-02-17T04:06:58;97140.44;;;7.21;100.00
11444;BME280;5778;47.856;12.154;2023-02-17T04:09:25;97144.78;;;7.16;100.00
11444;BME280;5778;47.856;12.154;2023-02-17T04:11:53;97147.41;;;7.16;100.00
11444;BME280;5778;47.856;12.154;2023-02-17T04:14:38;97136.44;;;7.19;100.00
11444;BME280;5778;47.856;12.154;2023-02-17T04:17:05;97148.66;;;7.13;100.00
11444;BME280;5778;47.856;12.154;2023-02-17T04:19:32;97136.66;;;7.11;100.00
11444;BME280;5778;47.856;12.154;2023-02-17T04:24:33;97138.06;;;7.13;100.00
11444;BME280;5778;47.856;12.154;2023-02-17T04:27:01;97133.63;;;7.07;100.00
11444;BME280;5778;47.856;12.154;2023-02-17T04:29:28;97142.19;;;7.03;100.00
11444;BME280;5778;47.856;12.154;2023-02-17T04:31:55;97137.69;;;7.03;100.00
11444;BME280;5778;47.856;12.154;2023-02-17T04:34:30;97136.25;;;7.07;100.00
11444;BME280;5778;47.856;12.154;2023-02-17T04:36:57;97146.28;;;6.99;100.00
11444;BME280;5778;47.856;12.154;2023-02-17T04:39:26;97139.56;;;6.96;100.00
11444;BME280;5778;47.856;12.154;2023-02-17T04:41:54;97144.03;;;6.96;100.00
11444;BME280;5778;47.856;12.154;2023-02-17T04:44:22;97132.44;;;6.97;100.00
11444;BME280;5778;47.856;12.154;2023-02-17T04:46:51;97133.25;;;6.97;100.00
11444;BME280;5778;47.856;12.154;2023-02-17T04:49:18;97127.75;;;6.99;100.00
11444;BME280;5778;47.856;12.154;2023-02-17T04:51:46;97121.03;;;7.03;100.00
11444;BME280;5778;47.856;12.154;2023-02-17T04:54:14;97122.84;;;7.02;100.00
11444;BME280;5778;47.856;12.154;2023-02-17T04:56:43;97123.44;;;7.04;100.00
11444;BME280;5778;47.856;12.154;2023-02-17T04:59:10;97119.19;;;7.03;100.00
11444;BME280;5778;47.856;12.154;2023-02-17T05:01:37;97123.06;;;7.01;100.00
11444;BME280;5778;47.856;12.154;2023-02-17T05:04:06;97122.22;;;7.07;100.00
11444;BME280;5778;47.856;12.154;2023-02-17T05:06:33;97108.78;;;7.08;100.00
11444;BME280;5778;47.856;12.154;2023-02-17T05:09:00;97119.81;;;7.05;100.00
11444;BME280;5778;47.856;12.154;2023-02-17T05:11:27;97121.19;;;7.08;100.00
11444;BME280;5778;47.856;12.154;2023-02-17T05:14:00;97127.09;;;7.10;100.00
11444;BME280;5778;47.856;12.154;2023-02-17T05:16:27;97117.94;;;7.12;100.00
11444;BME280;5778;47.856;12.154;2023-02-17T05:18:55;97113.03;;;7.16;100.00
11444;BME280;5778;47.856;12.154;2023-02-17T05:21:22;97110.19;;;7.17;100.00
11444;BME280;5778;47.856;12.154;2023-02-17T05:23:50;97108.31;;;7.18;100.00
11444;BME280;5778;47.856;12.154;2023-02-17T05:26:19;97108.50;;;7.23;100.00
11444;BME280;5778;47.856;12.154;2023-02-17T05:28:46;97094.09;;;7.19;100.00
11444;BME280;5778;47.856;12.154;2023-02-17T05:31:15;97096.31;;;7.22;100.00
11444;BME280;5778;47.856;12.154;2023-02-17T05:33:56;97102.81;;;7.26;100.00
11444;BME280;5778;47.856;12.154;2023-02-17T05:36:26;97096.50;;;7.27;100.00
11444;BME280;5778;47.856;12.154;2023-02-17T05:38:53;97100.94;;;7.33;100.00
11444;BME280;5778;47.856;12.154;2023-02-17T05:41:20;97100.09;;;7.32;100.00
11444;BME280;5778;47.856;12.154;2023-02-17T05:43:57;97099.09;;;7.33;100.00
11444;BME280;5778;47.856;12.154;2023-02-17T05:46:25;97099.03;;;7.40;100.00
11444;BME280;5778;47.856;12.154;2023-02-17T05:48:52;97086.81;;;7.45;100.00
11444;BME280;5778;47.856;12.154;2023-02-17T05:51:20;97093.50;;;7.48;100.00
11444;BME280;5778;47.856;12.154;2023-02-17T05:53:51;97093.50;;;7.48;100.00
11444;BME280;5778;47.856;12.154;2023-02-17T05:56:18;97093.94;;;7.45;100.00
11444;BME280;5778;47.856;12.154;2023-02-17T05:58:45;97106.19;;;7.39;100.00
11444;BME280;5778;47.856;12.154;2023-02-17T06:01:12;97100.69;;;7.41;100.00
11444;BME280;5778;47.856;12.154;2023-02-17T06:03:42;97115.94;;;7.39;100.00
11444;BME280;5778;47.856;12.154;2023-02-17T06:06:09;97104.41;;;7.33;100.00
11444;BME280;5778;47.856;12.154;2023-02-17T06:08:36;97108.03;;;7.32;100.00
11444;BME280;5778;47.856;12.154;2023-02-17T06:11:04;97107.91;;;7.27;100.00
11444;BME280;5778;47.856;12.154;2023-02-17T06:13:39;97104.81;;;7.30;100.00
11444;BME280;5778;47.856;12.154;2023-02-17T06:16:06;97101.56;;;7.28;100.00
11444;BME280;5778;47.856;12.154;2023-02-17T06:18:33;97094.88;;;7.26;100.00
11444;BME280;5778;47.856;12.154;2023-02-17T06:21:03;97098.53;;;7.25;100.00
11444;BME280;5778;47.856;12.154;2023-02-17T06:23:42;97090.00;;;7.23;100.00
11444;BME280;5778;47.856;12.154;2023-02-17T06:26:09;97096.09;;;7.23;100.00
11444;BME280;5778;47.856;12.154;2023-02-17T06:28:37;97102.19;;;7.24;100.00
11444;BME280;5778;47.856;12.154;2023-02-17T06:31:04;97100.94;;;7.26;100.00
11444;BME280;5778;47.856;12.154;2023-02-17T06:33:38;97096.91;;;7.24;100.00
11444;BME280;5778;47.856;12.154;2023-02-17T06:36:08;97104.84;;;7.24;100.00
11444;BME280;5778;47.856;12.154;2023-02-17T06:38:35;97109.13;;;7.25;100.00
11444;BME280;5778;47.856;12.154;2023-02-17T06:41:03;97118.03;;;7.30;100.00
11444;BME280;5778;47.856;12.154;2023-02-17T06:43:31;97109.88;;;7.38;100.00
11444;BME280;5778;47.856;12.154;2023-02-17T06:45:57;97106.97;;;7.40;100.00
11444;BME280;5778;47.856;12.154;2023-02-17T06:48:25;97126.72;;;7.44;100.00
11444;BME280;5778;47.856;12.154;2023-02-17T06:50:53;97104.47;;;7.51;100.00
11444;BME280;5778;47.856;12.154;2023-02-17T06:53:22;97111.00;;;7.49;100.00
11444;BME280;5778;47.856;12.154;2023-02-17T06:55:49;97122.59;;;7.54;100.00
11444;BME280;5778;47.856;12.154;2023-02-17T06:58:17;97116.19;;;7.62;100.00
11444;BME280;5778;47.856;12.154;2023-02-17T07:00:44;97127.19;;;7.65;100.00
11444;BME280;5778;47.856;12.154;2023-02-17T07:03:12;97116.13;;;7.75;99.91
11444;BME280;5778;47.856;12.154;2023-02-17T07:05:39;97126.28;;;7.78;98.51
11444;BME280;5778;47.856;12.154;2023-02-17T07:08:07;97114.22;;;7.82;98.66
11444;BME280;5778;47.856;12.154;2023-02-17T07:10:36;97125.00;;;7.87;97.99
11444;BME280;5778;47.856;12.154;2023-02-17T07:13:05;97120.06;;;7.90;97.66
11444;BME280;5778;47.856;12.154;2023-02-17T07:15:32;97112.50;;;7.94;95.92
11444;BME280;5778;47.856;12.154;2023-02-17T07:18:00;97115.31;;;7.99;93.67
11444;BME280;5778;47.856;12.154;2023-02-17T07:20:29;97126.44;;;8.07;91.50
11444;BME280;5778;47.856;12.154;2023-02-17T07:22:57;97129.25;;;8.12;89.69
11444;BME280;5778;47.856;12.154;2023-02-17T07:25:25;97130.66;;;8.15;92.14
11444;BME280;5778;47.856;12.154;2023-02-17T07:27:54;97128.84;;;8.15;88.96
11444;BME280;5778;47.856;12.154;2023-02-17T07:30:22;97123.09;;;8.18;89.23
11444;BME280;5778;47.856;12.154;2023-02-17T07:32:49;97122.91;;;8.20;91.08
11444;BME280;5778;47.856;12.154;2023-02-17T07:35:17;97129.84;;;8.21;88.96
11444;BME280;5778;47.856;12.154;2023-02-17T07:37:44;97128.59;;;8.23;89.55
11444;BME280;5778;47.856;12.154;2023-02-17T07:40:12;97123.66;;;8.27;90.34
11444;BME280;5778;47.856;12.154;2023-02-17T07:42:40;97127.13;;;8.27;88.09
11444;BME280;5778;47.856;12.154;2023-02-17T07:45:09;97125.69;;;8.31;86.73
11444;BME280;5778;47.856;12.154;2023-02-17T07:47:37;97140.09;;;8.35;86.77
11444;BME280;5778;47.856;12.154;2023-02-17T07:50:05;97137.59;;;8.40;86.38
11444;BME280;5778;47.856;12.154;2023-02-17T07:52:33;97129.44;;;8.42;84.71
11444;BME280;5778;47.856;12.154;2023-02-17T07:55:00;97125.75;;;8.43;85.05
11444;BME280;5778;47.856;12.154;2023-02-17T07:57:28;97121.50;;;8.42;85.58
11444;BME280;5778;47.856;12.154;2023-02-17T07:59:56;97126.56;;;8.43;82.80
11444;BME280;5778;47.856;12.154;2023-02-17T08:02:25;97126.34;;;8.45;85.52
11444;BME280;5778;47.856;12.154;2023-02-17T08:04:52;97105.69;;;8.53;84.93
11444;BME280;5778;47.856;12.154;2023-02-17T08:07:20;97120.34;;;8.56;86.17
11444;BME280;5778;47.856;12.154;2023-02-17T08:09:47;97122.53;;;8.59;87.23
11444;BME280;5778;47.856;12.154;2023-02-17T08:12:33;97114.16;;;8.62;86.53
11444;BME280;5778;47.856;12.154;2023-02-17T08:15:31;97114.88;;;8.69;86.07
11444;BME280;5778;47.856;12.154;2023-02-17T08:18:02;97115.25;;;8.72;83.99
11444;BME280;5778;47.856;12.154;2023-02-17T08:20:31;97119.09;;;8.76;84.85
11444;BME280;5778;47.856;12.154;2023-02-17T08:22:58;97121.94;;;8.75;85.65
11444;BME280;5778;47.856;12.154;2023-02-17T08:25:30;97119.09;;;8.76;86.17
11444;BME280;5778;47.856;12.154;2023-02-17T08:27:58;97118.63;;;8.79;86.81
11444;BME280;5778;47.856;12.154;2023-02-17T08:30:25;97125.94;;;8.84;88.78
11444;BME280;5778;47.856;12.154;2023-02-17T08:32:54;97128.38;;;8.85;88.63
11444;BME280;5778;47.856;12.154;2023-02-17T08:37:50;97130.50;;;8.95;91.64
11444;BME280;5778;47.856;12.154;2023-02-17T08:40:18;97134.47;;;8.86;90.75
11444;BME280;5778;47.856;12.154;2023-02-17T08:42:45;97125.06;;;8.90;91.81
11444;BME280;5778;47.856;12.154;2023-02-17T08:45:13;97133.59;;;8.92;92.98
11444;BME280;5778;47.856;12.154;2023-02-17T08:47:40;97126.97;;;9.01;94.53
11444;BME280;5778;47.856;12.154;2023-02-17T08:50:08;97132.69;;;8.98;94.19
11444;BME280;5778;47.856;12.154;2023-02-17T08:52:38;97137.94;;;9.04;94.63
11444;BME280;5778;47.856;12.154;2023-02-17T08:55:06;97136.84;;;8.94;95.42
11444;BME280;5778;47.856;12.154;2023-02-17T08:57:33;97147.59;;;8.99;98.37
11444;BME280;5778;47.856;12.154;2023-02-17T09:00:00;97139.03;;;8.97;98.10
11444;BME280;5778;47.856;12.154;2023-02-17T09:02:29;97135.34;;;8.98;96.85
11444;BME280;5778;47.856;12.154;2023-02-17T09:04:56;97140.16;;;9.07;99.14
11444;BME280;5778;47.856;12.154;2023-02-17T09:07:23;97138.50;;;9.06;98.69
11444;BME280;5778;47.856;12.154;2023-02-17T09:09:52;97143.81;;;9.06;99.71
11444;BME280;5778;47.856;12.154;2023-02-17T09:12:20;97139.53;;;9.05;100.00
11444;BME280;5778;47.856;12.154;2023-02-17T09:14:48;97143.38;;;9.09;99.86
11444;BME280;5778;47.856;12.154;2023-02-17T09:17:15;97145.59;;;9.12;100.00
11444;BME280;5778;47.856;12.154;2023-02-17T09:19:42;97147.59;;;9.17;100.00
11444;BME280;5778;47.856;12.154;2023-02-17T09:22:10;97148.91;;;9.26;96.99
11444;BME280;5778;47.856;12.154;2023-02-17T09:24:39;97155.22;;;9.25;96.04
11444;BME280;5778;47.856;12.154;2023-02-17T09:27:08;97151.97;;;9.41;96.27
11444;BME280;5778;47.856;12.154;2023-02-17T09:29:35;97154.31;;;9.49;94.33
11444;BME280;5778;47.856;12.154;2023-02-17T09:32:05;97166.00;;;9.59;93.34
11444;BME280;5778;47.856;12.154;2023-02-17T09:34:35;97161.53;;;9.60;91.95
11444;BME280;5778;47.856;12.154;2023-02-17T09:37:02;97160.28;;;9.74;92.86
11444;BME280;5778;47.856;12.154;2023-02-17T09:39:30;97168.38;;;9.79;88.73
11444;BME280;5778;47.856;12.154;2023-02-17T09:41:57;97164.38;;;9.88;88.76
11444;BME280;5778;47.856;12.154;2023-02-17T09:44:26;97177.31;;;9.96;87.00
11444;BME280;5778;47.856;12.154;2023-02-17T09:47:02;97176.41;;;10.02;84.67
11444;BME280;5778;47.856;12.154;2023-02-17T09:49:34;97170.59;;;10.11;83.41
11444;BME280;5778;47.856;12.154;2023-02-17T09:52:07;97178.56;;;10.23;82.31
11444;BME280;5778;47.856;12.154;2023-02-17T09:54:41;97174.78;;;10.30;80.76
11444;BME280;5778;47.856;12.154;2023-02-17T09:57:13;97177.47;;;10.42;79.01
11444;BME280;5778;47.856;12.154;2023-02-17T09:59:47;97177.00;;;10.56;80.77
11444;BME280;5778;47.856;12.154;2023-02-17T10:02:19;97178.50;;;10.64;75.07
11444;BME280;5778;47.856;12.154;2023-02-17T10:04:51;97175.59;;;10.77;73.94
11444;BME280;5778;47.856;12.154;2023-02-17T10:07:24;97176.19;;;10.90;70.51
11444;BME280;5778;47.856;12.154;2023-02-17T10:09:56;97174.41;;;11.19;67.94
11444;BME280;5778;47.856;12.154;2023-02-17T10:12:27;97175.72;;;11.44;68.09
11444;BME280;5778;47.856;12.154;2023-02-17T10:15:04;97165.41;;;11.59;69.01
11444;BME280;5778;47.856;12.154;2023-02-17T10:17:36;97166.38;;;11.70;69.51
11444;BME280;5778;47.856;12.154;2023-02-17T10:20:08;97160.28;;;11.86;72.48
11444;BME280;5778;47.856;12.154;2023-02-17T10:22:37;97151.13;;;12.10;72.16
11444;BME280;5778;47.856;12.154;2023-02-17T10:25:14;97158.47;;;12.36;73.45
11444;BME280;5778;47.856;12.154;2023-02-17T10:27:42;97159.13;;;12.26;67.75
11444;BME280;5778;47.856;12.154;2023-02-17T10:30:22;97166.63;;;12.13;68.95
11444;BME280;5778;47.856;12.154;2023-02-17T10:33:00;97164.06;;;12.01;66.63
11444;BME280;5778;47.856;12.154;2023-02-17T10:35:41;97157.94;;;11.89;73.11
11444;BME280;5778;47.856;12.154;2023-02-17T10:38:16;97157.63;;;11.86;80.26
11444;BME280;5778;47.856;12.154;2023-02-17T10:40:47;97157.31;;;11.82;76.16
11444;BME280;5778;47.856;12.154;2023-02-17T10:43:20;97149.88;;;11.84;74.75
11444;BME280;5778;47.856;12.154;2023-02-17T10:45:50;97154.88;;;11.81;76.58
11444;BME280;5778;47.856;12.154;2023-02-17T10:48:20;97146.72;;;11.87;77.13
11444;BME280;5778;47.856;12.154;2023-02-17T10:50:49;97150.63;;;11.96;75.09
11444;BME280;5778;47.856;12.154;2023-02-17T10:53:20;97146.28;;;12.07;75.77
11444;BME280;5778;47.856;12.154;2023-02-17T10:55:54;97138.03;;;12.25;76.68
11444;BME280;5778;47.856;12.154;2023-02-17T10:58:28;97136.75;;;12.44;73.38
11444;BME280;5778;47.856;12.154;2023-02-17T11:00:58;97137.69;;;12.54;74.17
11444;BME280;5778;47.856;12.154;2023-02-17T11:03:31;97141.50;;;12.58;74.95
11444;BME280;5778;47.856;12.154;2023-02-17T11:05:59;97133.81;;;12.62;74.91
11444;BME280;5778;47.856;12.154;2023-02-17T11:08:33;97124.97;;;12.78;74.77
11444;BME280;5778;47.856;12.154;2023-02-17T11:11:02;97132.66;;;12.74;73.63
11444;BME280;5778;47.856;12.154;2023-02-17T11:13:37;97127.66;;;12.78;74.52
11444;BME280;5778;47.856;12.154;2023-02-17T11:16:21;97127.31;;;12.91;72.51
11444;BME280;5778;47.856;12.154;2023-02-17T11:18:51;97128.41;;;12.95;72.26
11444;BME280;5778;47.856;12.154;2023-02-17T11:21:19;97122.44;;;12.88;71.90
11444;BME280;5778;47.856;12.154;2023-02-17T11:23:51;97118.41;;;13.02;72.05
11444;BME280;5778;47.856;12.154;2023-02-17T11:26:22;97118.50;;;13.12;73.57
11444;BME280;5778;47.856;12.154;2023-02-17T11:28:49;97112.22;;;13.23;73.41
11444;BME280;5778;47.856;12.154;2023-02-17T11:31:27;97123.09;;;13.38;72.34
11444;BME280;5778;47.856;12.154;2023-02-17T11:33:55;97107.59;;;13.35;71.58
11444;BME280;5778;47.856;12.154;2023-02-17T11:36:24;97106.50;;;13.57;71.27
11444;BME280;5778;47.856;12.154;2023-02-17T11:38:51;97108.50;;;13.72;71.15
11444;BME280;5778;47.856;12.154;2023-02-17T11:41:18;97102.38;;;14.03;69.49
11444;BME280;5778;47.856;12.154;2023-02-17T11:43:53;97115.03;;;14.39;67.94
11444;BME280;5778;47.856;12.154;2023-02-17T11:46:28;97092.09;;;14.53;64.85
11444;BME280;5778;47.856;12.154;2023-02-17T11:49:41;97102.63;;;14.01;66.99
11444;BME280;5778;47.856;12.154;2023-02-17T11:52:27;97097.97;;;14.18;67.42
11444;BME280;5778;47.856;12.154;2023-02-17T11:55:22;97104.03;;;14.09;70.20
11444;BME280;5778;47.856;12.154;2023-02-17T11:58:01;97098.31;;;14.27;76.98
11444;BME280;5778;47.856;12.154;2023-02-17T12:00:41;97079.25;;;14.50;77.29
11444;BME280;5778;47.856;12.154;2023-02-17T12:06:20;97099.66;;;14.61;78.30
11444;BME280;5778;47.856;12.154;2023-02-17T12:09:01;97088.97;;;14.61;79.27
11444;BME280;5778;47.856;12.154;2023-02-17T12:11:35;97080.97;;;14.66;78.76
11444;BME280;5778;47.856;12.154;2023-02-17T12:17:40;97064.94;;;14.71;79.92
11444;BME280;5778;47.856;12.154;2023-02-17T12:20:30;97068.97;;;14.73;81.10
11444;BME280;5778;47.856;12.154;2023-02-17T12:23:39;97059.38;;;14.87;81.09
11444;BME280;5778;47.856;12.154;2023-02-17T12:26:15;97052.66;;;14.85;81.38
11444;BME280;5778;47.856;12.154;2023-02-17T12:28:54;97048.44;;;14.94;81.14
11444;BME280;5778;47.856;12.154;2023-02-17T12:31:38;97041.78;;;15.01;81.63
11444;BME280;5778;47.856;12.154;2023-02-17T12:34:14;97043.13;;;15.14;81.33
11444;BME280;5778;47.856;12.154;2023-02-17T12:36:44;97035.88;;;15.09;86.36
11444;BME280;5778;47.856;12.154;2023-02-17T12:39:19;97068.59;;;15.11;85.98
11444;BME280;5778;47.856;12.154;2023-02-17T12:41:50;97033.47;;;15.13;85.83
11444;BME280;5778;47.856;12.154;2023-02-17T12:44:24;97027.88;;;15.14;89.06
11444;BME280;5778;47.856;12.154;2023-02-17T12:46:55;97034.84;;;15.20;87.07
11444;BME280;5778;47.856;12.154;2023-02-17T12:49:28;97029.25;;;15.27;87.01
11444;BME280;5778;47.856;12.154;2023-02-17T12:52:01;97040.50;;;15.29;87.20
11444;BME280;5778;47.856;12.154;2023-02-17T12:54:35;97042.63;;;15.17;90.45
11444;BME280;5778;47.856;12.154;2023-02-17T12:57:17;97049.59;;;15.18;89.72
11444;BME280;5778;47.856;12.154;2023-02-17T12:59:48;97024.38;;;15.14;91.21
11444;BME280;5778;47.856;12.154;2023-02-17T13:02:18;97023.34;;;15.20;90.84
11444;BME280;5778;47.856;12.154;2023-02-17T13:04:48;97027.38;;;15.27;90.60
11444;BME280;5778;47.856;12.154;2023-02-17T13:10:29;97026.03;;;15.30;89.56
11444;BME280;5778;47.856;12.154;2023-02-17T13:13:00;97013.25;;;15.42;90.46
11444;BME280;5778;47.856;12.154;2023-02-17T13:15:31;97016.97;;;15.41;89.68
11444;BME280;5778;47.856;12.154;2023-02-17T13:18:00;97013.25;;;15.37;90.00
11444;BME280;5778;47.856;12.154;2023-02-17T13:20:51;97012.34;;;15.26;91.87
11444;BME280;5778;47.856;12.154;2023-02-17T13:23:32;97008.91;;;15.26;92.53
11444;BME280;5778;47.856;12.154;2023-02-17T13:26:22;97015.81;;;15.17;94.90
11444;BME280;5778;47.856;12.154;2023-02-17T13:28:51;97029.19;;;15.12;96.18
11444;BME280;5778;47.856;12.154;2023-02-17T13:31:20;97031.34;;;15.10;97.21
11444;BME280;5778;47.856;12.154;2023-02-17T13:33:50;97020.34;;;15.06;97.73
11444;BME280;5778;47.856;12.154;2023-02-17T13:36:20;97007.75;;;15.07;98.99
11444;BME280;5778;47.856;12.154;2023-02-17T13:38:59;97004.81;;;15.08;99.17
11444;BME280;5778;47.856;12.154;2023-02-17T13:41:32;97009.34;;;15.03;100.00